createdAt,value
2019-04-07T00:02:25.587Z,26.37
2019-04-07T00:04:55.799Z,30.10
2019-04-07T00:07:26.329Z,27.27
2019-04-07T00:09:56.864Z,28.23
2019-04-07T00:12:27.687Z,30.37
2019-04-07T00:14:57.865Z,30.20
2019-04-07T00:17:27.841Z,30.60
2019-04-07T00:19:57.813Z,28.77
2019-04-07T00:22:28.021Z,30.40
2019-04-07T00:24:58.358Z,28.17
2019-04-07T00:27:28.355Z,33.10
2019-04-07T00:29:58.293Z,27.37
2019-04-07T00:32:28.434Z,31.00
2019-04-07T00:34:58.614Z,30.60
2019-04-07T00:37:29.489Z,29.60
2019-04-07T00:39:59.849Z,33.40
2019-04-07T00:42:30.021Z,30.77
2019-04-07T00:44:59.881Z,32.73
2019-04-07T00:47:29.761Z,25.97
2019-04-07T00:49:59.841Z,33.10
2019-04-07T00:52:29.703Z,27.97
2019-04-07T00:54:59.640Z,27.20
2019-04-07T00:57:30.268Z,26.17
2019-04-07T01:00:00.571Z,39.27
2019-04-07T01:02:32.226Z,29.93
2019-04-07T01:05:02.648Z,32.90
2019-04-07T01:07:32.661Z,26.53
2019-04-07T01:10:02.848Z,17.67
2019-04-07T01:12:33.849Z,30.27
2019-04-07T01:15:04.323Z,28.17
2019-04-07T01:17:34.689Z,26.80
2019-04-07T01:20:06.275Z,24.13
2019-04-07T01:22:36.381Z,32.77
2019-04-07T01:25:08.839Z,28.30
2019-04-07T01:27:39.256Z,32.43
2019-04-07T01:30:09.684Z,31.83
2019-04-07T01:32:39.588Z,29.17
2019-04-07T01:35:10.085Z,34.33
2019-04-07T01:41:43.877Z,35.37
2019-04-07T01:44:33.404Z,20.80
2019-04-07T01:47:21.732Z,25.43
2019-04-07T01:49:59.763Z,30.37
2019-04-07T01:52:52.656Z,26.10
2019-04-07T01:55:43.969Z,26.63
2019-04-07T01:58:35.518Z,21.00
2019-04-07T02:01:24.690Z,30.87
2019-04-07T02:04:11.753Z,24.57
2019-04-07T02:07:28.530Z,24.70
2019-04-07T02:10:14.990Z,25.07
2019-04-07T02:13:08.559Z,28.97
2019-04-07T02:16:14.368Z,24.43
2019-04-07T02:19:01.101Z,35.27
2019-04-07T02:21:53.591Z,36.17
2019-04-07T02:24:35.657Z,26.37
2019-04-07T02:27:30.678Z,24.87
2019-04-07T02:30:18.177Z,26.73
2019-04-07T02:33:16.679Z,22.07
2019-04-07T02:36:15.657Z,34.23
2019-04-07T02:38:49.978Z,28.67
2019-04-07T02:41:30.564Z,22.27
2019-04-07T02:44:18.951Z,28.47
2019-04-07T02:47:24.326Z,25.03
2019-04-07T02:50:16.288Z,23.40
2019-04-07T02:53:11.206Z,26.30
2019-04-07T02:56:03.478Z,26.77
2019-04-07T02:58:47.748Z,25.20
2019-04-07T03:01:43.404Z,30.13
2019-04-07T03:04:31.270Z,18.93
2019-04-07T03:07:17.607Z,31.43
2019-04-07T03:10:13.039Z,18.83
2019-04-07T03:13:06.048Z,25.27
2019-04-07T03:15:54.585Z,35.03
2019-04-07T03:18:44.384Z,27.70
2019-04-07T03:21:29.638Z,26.73
2019-04-07T03:24:21.314Z,21.07
2019-04-07T03:27:08.935Z,28.03
2019-04-07T03:29:52.095Z,28.30
2019-04-07T03:32:48.043Z,30.97
2019-04-07T03:35:35.293Z,25.53
2019-04-07T03:38:28.022Z,27.67
2019-04-07T03:41:23.845Z,32.77
2019-04-07T03:44:03.344Z,26.80
2019-04-07T03:46:55.323Z,30.23
2019-04-07T03:49:31.645Z,27.30
2019-04-07T03:52:21.275Z,24.57
2019-04-07T03:55:25.911Z,22.83
2019-04-07T03:58:14.779Z,24.10
2019-04-07T04:01:28.475Z,29.90
2019-04-07T04:04:10.613Z,29.30
2019-04-07T04:07:26.643Z,26.60
2019-04-07T04:10:10.884Z,28.07
2019-04-07T04:12:50.260Z,37.77
2019-04-07T04:15:40.245Z,36.87
2019-04-07T04:18:10.256Z,29.20
2019-04-07T04:20:40.879Z,27.43
2019-04-07T04:23:12.575Z,30.57
2019-04-07T04:25:42.896Z,25.57
2019-04-07T04:28:14.266Z,30.47
2019-04-07T04:30:44.365Z,27.70
2019-04-07T04:33:14.366Z,27.67
2019-04-07T04:35:44.296Z,24.90
2019-04-07T04:38:14.164Z,36.17
2019-04-07T04:40:44.171Z,32.83
2019-04-07T04:43:14.103Z,23.37
2019-04-07T04:45:44.889Z,28.63
2019-04-07T04:48:15.504Z,25.80
2019-04-07T04:50:45.896Z,34.57
2019-04-07T04:53:15.766Z,33.10
2019-04-07T04:55:45.947Z,37.10
2019-04-07T04:58:15.750Z,29.40
2019-04-07T05:00:45.748Z,28.53
2019-04-07T05:03:15.994Z,27.53
2019-04-07T05:05:46.923Z,31.77
2019-04-07T05:08:17.546Z,26.73
2019-04-07T05:10:48.272Z,26.77
2019-04-07T05:13:19.025Z,18.97
2019-04-07T05:15:50.193Z,27.97
2019-04-07T05:18:21.078Z,32.87
2019-04-07T05:20:54.254Z,26.53
2019-04-07T05:23:25.114Z,22.23
2019-04-07T05:25:55.718Z,34.33
2019-04-07T05:28:26.595Z,30.43
2019-04-07T05:30:56.931Z,37.20
2019-04-07T05:33:27.770Z,28.53
2019-04-07T05:35:58.315Z,33.87
2019-04-07T05:38:29.048Z,24.13
2019-04-07T05:40:59.555Z,24.80
2019-04-07T05:43:30.495Z,28.47
2019-04-07T05:46:00.827Z,26.63
2019-04-07T05:48:31.682Z,31.93
2019-04-07T05:51:02.300Z,30.37
2019-04-07T05:53:32.391Z,33.33
2019-04-07T05:56:02.350Z,33.10
2019-04-07T05:58:32.299Z,33.87
2019-04-07T06:01:02.824Z,38.13
2019-04-07T06:03:32.984Z,22.27
2019-04-07T06:06:03.105Z,29.70
2019-04-07T06:12:09.727Z,30.90
2019-04-07T06:14:39.149Z,27.20
2019-04-07T06:17:09.782Z,26.13
2019-04-07T06:19:41.259Z,24.10
2019-04-07T06:22:11.349Z,28.90
2019-04-07T06:24:41.157Z,37.07
2019-04-07T06:27:13.510Z,34.00
2019-04-07T06:29:42.714Z,39.53
2019-04-07T06:32:13.477Z,33.10
2019-04-07T06:34:44.430Z,29.23
2019-04-07T06:37:14.598Z,27.97
2019-04-07T06:43:25.813Z,38.00
2019-04-07T06:46:08.239Z,35.53
2019-04-07T06:48:57.317Z,22.47
2019-04-07T06:51:44.629Z,24.60
2019-04-07T06:54:32.204Z,22.23
2019-04-07T06:57:30.804Z,26.73
2019-04-07T07:00:26.923Z,29.30
2019-04-07T07:03:11.618Z,22.87
2019-04-07T07:06:01.116Z,27.47
2019-04-07T07:09:03.145Z,25.67
2019-04-07T07:11:59.531Z,32.33
2019-04-07T07:14:50.792Z,27.17
2019-04-07T07:17:29.329Z,28.80
2019-04-07T07:20:27.569Z,29.03
2019-04-07T07:27:12.521Z,30.27
2019-04-07T07:29:45.336Z,30.83
2019-04-07T07:32:14.733Z,29.60
2019-04-07T07:34:45.042Z,24.77
2019-04-07T07:37:25.282Z,29.70
2019-04-07T07:43:29.379Z,26.07
2019-04-07T07:46:00.163Z,28.60
2019-04-07T07:48:31.376Z,23.33
2019-04-07T07:51:02.337Z,26.33
2019-04-07T07:53:32.946Z,21.43
2019-04-07T07:56:03.233Z,29.57
2019-04-07T07:58:34.509Z,24.87
2019-04-07T08:01:05.338Z,27.03
2019-04-07T08:03:36.076Z,24.60
2019-04-07T08:06:08.336Z,22.97
2019-04-07T08:08:38.049Z,27.70
2019-04-07T08:11:07.942Z,22.67
2019-04-07T08:13:43.290Z,27.27
2019-04-07T08:16:09.785Z,23.43
2019-04-07T08:18:43.582Z,25.27
2019-04-07T08:21:12.471Z,21.00
2019-04-07T08:23:45.134Z,25.20
2019-04-07T08:26:14.734Z,25.30
2019-04-07T08:28:45.070Z,24.63
2019-04-07T08:31:17.801Z,20.53
2019-04-07T08:33:50.085Z,24.00
2019-04-07T08:36:19.411Z,24.27
2019-04-07T08:38:52.583Z,23.53
2019-04-07T08:41:22.281Z,23.87
2019-04-07T08:43:55.436Z,23.60
2019-04-07T08:46:26.482Z,24.87
2019-04-07T08:49:01.797Z,23.37
2019-04-07T08:51:32.881Z,24.03
2019-04-07T08:57:45.737Z,24.40
2019-04-07T09:00:23.949Z,24.67
2019-04-07T09:03:01.678Z,24.73
2019-04-07T09:05:29.044Z,20.63
2019-04-07T09:07:57.454Z,23.80
2019-04-07T09:10:43.042Z,23.13
2019-04-07T09:13:13.128Z,23.97
2019-04-07T09:15:52.189Z,24.00
2019-04-07T09:18:28.411Z,24.17
2019-04-07T09:21:40.336Z,23.00
2019-04-07T09:24:31.360Z,22.53
2019-04-07T09:27:23.576Z,24.60
2019-04-07T09:30:12.801Z,22.53
2019-04-07T09:33:08.172Z,22.50
2019-04-07T09:35:58.863Z,20.30
2019-04-07T09:38:46.975Z,21.20
2019-04-07T09:41:29.730Z,18.33
2019-04-07T09:44:19.739Z,20.07
2019-04-07T09:47:08.730Z,17.17
2019-04-07T09:50:00.536Z,18.43
2019-04-07T09:52:49.352Z,20.33
2019-04-07T09:55:36.789Z,19.37
2019-04-07T09:58:35.053Z,19.63
2019-04-07T10:01:21.066Z,18.87
2019-04-07T10:04:11.990Z,17.07
2019-04-07T10:07:00.587Z,19.40
2019-04-07T10:10:10.844Z,16.07
2019-04-07T10:12:46.777Z,15.37
2019-04-07T10:15:34.176Z,17.70
2019-04-07T10:18:13.314Z,15.47
2019-04-07T10:20:54.269Z,17.40
2019-04-07T10:27:51.948Z,16.93
2019-04-07T10:30:33.682Z,16.53
2019-04-07T10:33:31.646Z,17.30
2019-04-07T10:36:20.556Z,16.77
2019-04-07T10:39:01.940Z,15.03
2019-04-07T10:41:54.271Z,16.67
2019-04-07T10:44:34.046Z,16.37
2019-04-07T10:47:18.387Z,15.87
2019-04-07T10:50:02.707Z,16.77
2019-04-07T10:52:39.813Z,15.27
2019-04-07T10:55:31.554Z,15.73
2019-04-07T10:58:20.850Z,13.73
2019-04-07T11:01:11.766Z,13.27
2019-04-07T11:04:00.678Z,12.90
2019-04-07T11:06:50.173Z,12.57
2019-04-07T11:09:50.920Z,13.67
2019-04-07T11:12:39.843Z,12.87
2019-04-07T11:15:35.134Z,14.73
2019-04-07T11:18:20.730Z,14.10
2019-04-07T11:21:06.891Z,16.13
2019-04-07T11:23:54.493Z,15.07
2019-04-07T11:26:36.457Z,15.07
2019-04-07T11:29:16.592Z,15.40
2019-04-07T11:32:08.698Z,15.97
2019-04-07T11:34:46.671Z,16.40
2019-04-07T11:37:27.512Z,14.67
2019-04-07T11:40:04.671Z,14.80
2019-04-07T11:43:08.843Z,16.00
2019-04-07T11:46:03.043Z,15.00
2019-04-07T11:48:53.129Z,15.17
2019-04-07T11:51:37.933Z,14.70
2019-04-07T11:54:26.715Z,14.67
2019-04-07T11:57:21.515Z,14.57
2019-04-07T12:00:09.682Z,15.13
2019-04-07T12:03:12.620Z,14.83
2019-04-07T12:05:59.928Z,15.33
2019-04-07T12:08:47.871Z,15.00
2019-04-07T12:11:40.817Z,14.37
2019-04-07T12:14:38.575Z,14.77
2019-04-07T12:17:16.683Z,14.43
2019-04-07T12:19:58.176Z,14.60
2019-04-07T12:22:44.739Z,14.80
2019-04-07T12:25:37.312Z,15.00
2019-04-07T12:28:25.742Z,15.30
2019-04-07T12:31:13.874Z,16.13
2019-04-07T12:34:01.469Z,15.30
2019-04-07T12:36:43.012Z,14.03
2019-04-07T12:39:34.130Z,15.20
2019-04-07T12:42:20.798Z,16.43
2019-04-07T12:45:11.171Z,12.83
2019-04-07T12:48:09.254Z,15.33
2019-04-07T12:51:00.991Z,15.93
2019-04-07T12:53:44.329Z,14.73
2019-04-07T12:56:39.518Z,15.17
2019-04-07T12:59:37.621Z,16.23
2019-04-07T13:02:39.195Z,15.40
2019-04-07T13:05:34.498Z,15.93
2019-04-07T13:08:28.532Z,15.87
2019-04-07T13:11:25.394Z,16.23
2019-04-07T13:14:10.026Z,16.23
2019-04-07T13:17:17.128Z,14.80
2019-04-07T13:20:02.181Z,16.87
2019-04-07T13:22:45.567Z,15.50
2019-04-07T13:29:05.319Z,15.47
2019-04-07T13:31:52.881Z,16.17
2019-04-07T13:34:31.142Z,16.03
2019-04-07T13:37:17.402Z,16.37
2019-04-07T13:40:15.780Z,16.70
2019-04-07T13:43:07.883Z,16.63
2019-04-07T13:45:53.734Z,16.50
2019-04-07T13:48:49.534Z,16.90
2019-04-07T13:51:34.612Z,17.37
2019-04-07T13:54:25.359Z,17.20
2019-04-07T13:57:26.010Z,17.27
2019-04-07T14:00:13.425Z,16.43
2019-04-07T14:03:06.924Z,15.43
2019-04-07T14:06:14.939Z,15.00
2019-04-07T14:09:04.166Z,16.67
2019-04-07T14:12:07.556Z,15.83
2019-04-07T14:14:55.963Z,16.30
2019-04-07T14:17:45.081Z,17.57
2019-04-07T14:20:32.878Z,17.03
2019-04-07T14:30:11.508Z,16.20
2019-04-07T14:32:58.529Z,19.57
2019-04-07T14:35:39.041Z,17.40
2019-04-07T14:38:22.316Z,17.43
2019-04-07T14:41:09.675Z,17.93
2019-04-07T14:44:10.743Z,18.37
2019-04-07T14:46:55.524Z,17.73
2019-04-07T14:49:50.323Z,17.03
2019-04-07T14:52:41.196Z,15.47
2019-04-07T14:55:31.511Z,15.67
2019-04-07T14:58:19.249Z,16.73
2019-04-07T15:01:26.609Z,16.67
2019-04-07T15:03:56.623Z,17.17
2019-04-07T15:06:31.136Z,14.03
2019-04-07T15:09:18.815Z,15.43
2019-04-07T15:12:14.273Z,14.57
2019-04-07T15:14:34.075Z,13.83
2019-04-07T15:17:04.718Z,13.87
2019-04-07T15:19:35.170Z,13.30
2019-04-07T15:22:06.524Z,14.37
2019-04-07T15:24:37.631Z,13.60
2019-04-07T15:27:08.360Z,13.47
2019-04-07T15:29:40.779Z,13.27
2019-04-07T15:32:10.550Z,13.77
2019-04-07T15:34:42.544Z,14.77
2019-04-07T15:37:12.131Z,13.93
2019-04-07T15:39:42.709Z,14.67
2019-04-07T15:42:15.328Z,14.97
2019-04-07T15:44:45.028Z,14.70
2019-04-07T15:47:15.161Z,14.63
2019-04-07T15:49:45.435Z,12.63
2019-04-07T15:52:15.368Z,12.60
2019-04-07T15:54:45.235Z,12.83
2019-04-07T15:57:15.115Z,13.57
2019-04-07T15:59:45.092Z,13.30
2019-04-07T16:02:16.116Z,13.37
2019-04-07T16:04:46.212Z,13.73
2019-04-07T16:07:18.399Z,14.03
2019-04-07T16:09:52.831Z,13.67
2019-04-07T16:12:19.717Z,13.83
2019-04-07T16:14:50.413Z,14.00
2019-04-07T16:17:21.108Z,13.93
2019-04-07T16:19:54.066Z,13.80
2019-04-07T16:22:22.642Z,12.00
2019-04-07T16:24:55.031Z,13.03
2019-04-07T16:27:24.007Z,13.13
2019-04-07T16:29:53.785Z,12.90
2019-04-07T16:32:24.175Z,12.80
2019-04-07T16:34:54.037Z,13.27
2019-04-07T16:37:24.985Z,13.70
2019-04-07T16:39:54.961Z,12.37
2019-04-07T16:42:25.434Z,11.93
2019-04-07T16:44:55.313Z,12.67
2019-04-07T16:47:29.084Z,12.13
2019-04-07T16:49:56.879Z,12.07
2019-04-07T16:52:31.127Z,13.37
2019-04-07T16:58:35.310Z,13.27
2019-04-07T17:01:02.563Z,13.43
2019-04-07T17:03:32.418Z,12.57
2019-04-07T17:06:02.972Z,12.83
2019-04-07T17:08:33.874Z,13.37
2019-04-07T17:11:07.700Z,13.20
2019-04-07T17:13:41.224Z,10.77
2019-04-07T17:16:10.147Z,12.73
2019-04-07T17:18:43.058Z,12.23
2019-04-07T17:21:15.798Z,12.93
2019-04-07T17:23:46.147Z,12.43
2019-04-07T17:26:16.024Z,13.10
2019-04-07T17:28:48.117Z,13.80
2019-04-07T17:31:17.586Z,12.50
2019-04-07T17:33:48.791Z,11.40
2019-04-07T17:36:22.255Z,13.27
2019-04-07T17:39:09.868Z,12.97
2019-04-07T17:41:39.776Z,12.00
2019-04-07T17:44:22.376Z,12.30
2019-04-07T17:47:20.132Z,11.87
2019-04-07T17:50:05.105Z,14.00
2019-04-07T17:52:54.002Z,17.90
2019-04-07T17:55:42.968Z,16.27
2019-04-07T17:58:22.203Z,13.10
2019-04-07T18:01:13.946Z,11.90
2019-04-07T18:04:18.812Z,12.30
2019-04-07T18:07:10.003Z,12.43
2019-04-07T18:10:02.705Z,13.20
2019-04-07T18:13:07.427Z,11.77
2019-04-07T18:15:49.809Z,12.20
2019-04-07T18:18:48.624Z,12.70
2019-04-07T18:21:30.208Z,14.53
2019-04-07T18:24:20.571Z,16.83
2019-04-07T18:27:03.160Z,15.77
2019-04-07T18:29:44.880Z,13.00
2019-04-07T18:32:26.414Z,11.80
2019-04-07T18:35:04.472Z,14.03
2019-04-07T18:37:54.006Z,13.87
2019-04-07T18:40:35.254Z,12.33
2019-04-07T18:43:22.681Z,16.93
2019-04-07T18:46:11.884Z,17.90
2019-04-07T18:49:03.187Z,15.53
2019-04-07T18:51:49.297Z,20.83
2019-04-07T18:54:46.478Z,17.37
2019-04-07T18:57:42.629Z,14.60
2019-04-07T19:00:44.037Z,15.90
2019-04-07T19:03:33.787Z,16.17
2019-04-07T19:06:18.078Z,14.70
2019-04-07T19:08:58.920Z,16.17
2019-04-07T19:11:47.236Z,14.07
2019-04-07T19:14:40.162Z,14.40
2019-04-07T19:17:38.531Z,13.87
2019-04-07T19:20:26.224Z,14.90
2019-04-07T19:23:28.439Z,13.90
2019-04-07T19:26:29.001Z,15.60
2019-04-07T19:29:10.328Z,15.13
2019-04-07T19:32:05.969Z,13.63
2019-04-07T19:35:13.199Z,15.40
2019-04-07T19:38:16.796Z,13.23
2019-04-07T19:41:11.119Z,16.37
2019-04-07T19:43:52.786Z,12.63
2019-04-07T19:46:34.527Z,13.87
2019-04-07T19:49:24.064Z,14.43
2019-04-07T19:52:16.250Z,13.13
2019-04-07T19:55:05.849Z,13.03
2019-04-07T19:58:07.650Z,13.43
2019-04-07T20:00:58.945Z,14.67
2019-04-07T20:03:53.982Z,12.30
2019-04-07T20:06:48.668Z,14.37
2019-04-07T20:09:48.335Z,13.67
2019-04-07T20:12:47.469Z,15.63
2019-04-07T20:15:36.489Z,15.17
2019-04-07T20:18:30.097Z,12.90
2019-04-07T20:21:19.603Z,11.93
2019-04-07T20:28:17.462Z,15.53
2019-04-07T20:31:12.662Z,14.13
2019-04-07T20:33:51.253Z,12.70
2019-04-07T20:36:40.151Z,12.17
2019-04-07T20:39:36.420Z,11.13
2019-04-07T20:42:34.703Z,12.03
2019-04-07T20:45:18.455Z,10.80
2019-04-07T20:48:02.977Z,10.13
2019-04-07T20:50:50.248Z,10.47
2019-04-07T20:53:39.426Z,12.03
2019-04-07T20:56:36.171Z,8.13
2019-04-07T20:59:13.932Z,11.37
2019-04-07T21:02:19.170Z,12.63
2019-04-07T21:05:15.600Z,9.40
2019-04-07T21:07:59.532Z,11.40
2019-04-07T21:10:56.041Z,14.67
2019-04-07T21:13:54.564Z,9.60
2019-04-07T21:16:47.178Z,10.87
2019-04-07T21:19:37.130Z,12.33
2019-04-07T21:22:15.304Z,11.33
2019-04-07T21:25:19.515Z,11.03
2019-04-07T21:28:20.855Z,8.50
2019-04-07T21:31:20.099Z,13.20
2019-04-07T21:34:08.777Z,13.07
2019-04-07T21:37:00.915Z,14.90
2019-04-07T21:39:55.773Z,12.77
2019-04-07T21:42:54.750Z,10.90
2019-04-07T21:45:50.396Z,10.83
2019-04-07T21:48:37.095Z,12.37
2019-04-07T21:51:46.509Z,12.20
2019-04-07T21:54:40.826Z,13.83
2019-04-07T21:57:19.993Z,14.40
2019-04-07T22:00:12.517Z,13.80
2019-04-07T22:03:08.733Z,15.10
2019-04-07T22:05:46.639Z,10.60
2019-04-07T22:08:28.513Z,12.93
2019-04-07T22:10:58.339Z,11.77
2019-04-07T22:13:28.707Z,11.57
2019-04-07T22:16:02.663Z,12.97
2019-04-07T22:18:30.479Z,12.67
2019-04-07T22:21:01.226Z,11.67
2019-04-07T22:23:31.801Z,14.57
2019-04-07T22:26:02.664Z,10.80
2019-04-07T22:28:33.283Z,13.47
2019-04-07T22:31:03.627Z,14.30
2019-04-07T22:33:34.139Z,10.50
2019-04-07T22:36:05.859Z,13.53
2019-04-07T22:38:35.896Z,12.60
2019-04-07T22:41:07.334Z,10.53
2019-04-07T22:43:37.280Z,12.13
2019-04-07T22:46:16.685Z,13.07
2019-04-07T22:48:38.765Z,14.13
2019-04-07T22:51:12.122Z,12.80
2019-04-07T22:53:40.101Z,11.93
2019-04-07T22:56:09.964Z,14.57
2019-04-07T22:58:40.213Z,12.53
2019-04-07T23:01:11.117Z,11.87
2019-04-07T23:03:41.302Z,10.30
2019-04-07T23:06:11.217Z,15.07
2019-04-07T23:08:41.173Z,11.17
2019-04-07T23:11:11.962Z,12.37
2019-04-07T23:13:42.073Z,9.47
2019-04-07T23:16:15.129Z,11.17
2019-04-07T23:18:44.419Z,12.43
2019-04-07T23:21:14.987Z,11.07
2019-04-07T23:23:46.166Z,12.50
2019-04-07T23:26:16.288Z,14.67
2019-04-07T23:28:47.093Z,11.30
2019-04-07T23:31:17.664Z,11.07
2019-04-07T23:33:47.582Z,12.43
2019-04-07T23:36:17.953Z,13.30
2019-04-07T23:38:48.011Z,11.33
2019-04-07T23:41:18.089Z,11.23
2019-04-07T23:43:48.102Z,12.03
2019-04-07T23:46:23.190Z,16.67
2019-04-07T23:48:49.792Z,15.27
2019-04-07T23:51:20.646Z,12.80
2019-04-07T23:54:11.253Z,11.13
2019-04-07T23:56:43.716Z,14.43
2019-04-07T23:59:14.626Z,10.83
